Time;durP1;ratioP1;P1;durP2;ratioP2;P2;SDS_P1;SDS_P2;PMS_P1;PMS_P2;Temp;Humidity;BMP_temperature;BMP_pressure;BME280_temperature;BME280_humidity;BME280_pressure;Samples;Min_cycle;Max_cycle;Signal;HPM_P1;HPM_P2
2021/10/12 00:00:29;;;;;;;58.47;3.37;;;8.60;1.00;;;;;;5088073;28;20881;-71
2021/10/12 00:02:56;;;;;;;60.43;4.20;;;8.60;1.00;;;;;;5088190;28;20980;-71
2021/10/12 00:05:23;;;;;;;58.37;3.10;;;8.60;1.00;;;;;;5088169;28;20475;-71
2021/10/12 00:07:50;;;;;;;58.47;3.10;;;8.60;1.00;;;;;;5088086;28;20441;-71
2021/10/12 00:10:17;;;;;;;58.80;2.87;;;8.60;1.00;;;;;;5088422;28;20485;-71
2021/10/12 00:12:44;;;;;;;58.70;3.10;;;8.60;1.00;;;;;;5088535;28;20449;-70
2021/10/12 00:15:11;;;;;;;58.43;3.10;;;8.60;1.00;;;;;;5088007;28;20476;-70
2021/10/12 00:17:40;;;;;;;60.10;2.90;;;8.60;1.00;;;;;;5088304;28;20459;-70
2021/10/12 00:20:08;;;;;;;58.43;3.40;;;8.60;1.00;;;;;;5087920;28;20520;-72
2021/10/12 00:22:36;;;;;;;58.63;3.00;;;8.60;1.00;;;;;;5088083;28;20532;-70
2021/10/12 00:25:04;;;;;;;58.60;2.90;;;8.50;1.00;;;;;;5087648;28;20485;-70
2021/10/12 00:27:31;;;;;;;58.90;4.37;;;8.50;1.00;;;;;;5089730;28;20547;-70
2021/10/12 00:29:58;;;;;;;62.80;5.33;;;8.50;1.00;;;;;;5108211;28;20465;-70
2021/10/12 00:32:25;;;;;;;60.60;3.93;;;8.50;1.00;;;;;;5108482;28;20449;-70
2021/10/12 00:34:53;;;;;;;58.43;3.10;;;8.50;1.00;;;;;;5108246;28;20469;-70
2021/10/12 00:37:20;;;;;;;58.30;2.63;;;8.40;1.00;;;;;;5095356;28;20488;-70
2021/10/12 00:39:47;;;;;;;58.53;3.07;;;8.40;1.00;;;;;;5094446;28;20505;-70
2021/10/12 00:42:14;;;;;;;58.43;3.40;;;8.40;1.00;;;;;;5094170;28;20536;-70
2021/10/12 00:44:41;;;;;;;58.53;3.10;;;8.40;1.00;;;;;;5093838;28;21103;-70
2021/10/12 00:47:08;;;;;;;58.70;3.63;;;8.40;1.00;;;;;;5094347;28;20538;-70
2021/10/12 00:49:35;;;;;;;59.83;3.63;;;8.40;1.00;;;;;;5094117;28;20500;-70
2021/10/12 00:52:04;;;;;;;58.83;3.20;;;8.40;1.00;;;;;;5094281;28;20444;-70
2021/10/12 00:54:31;;;;;;;58.77;3.60;;;8.40;1.00;;;;;;5094408;28;20454;-70
2021/10/12 00:56:58;;;;;;;59.40;3.00;;;8.30;1.00;;;;;;5094323;28;20547;-70
2021/10/12 00:59:25;;;;;;;58.47;3.00;;;8.30;1.00;;;;;;5092277;28;20817;-70
2021/10/12 01:01:52;;;;;;;58.37;2.80;;;8.30;1.00;;;;;;5094031;28;20486;-70
2021/10/12 01:04:19;;;;;;;58.57;3.00;;;8.30;1.00;;;;;;5093637;28;20536;-70
2021/10/12 01:06:46;;;;;;;59.40;4.60;;;8.30;1.00;;;;;;5093707;28;20534;-70
2021/10/12 01:09:14;;;;;;;58.57;3.10;;;8.20;1.00;;;;;;5093568;28;20559;-70
2021/10/12 01:11:41;;;;;;;58.70;3.77;;;8.20;1.00;;;;;;5093825;28;20547;-71
2021/10/12 01:14:08;;;;;;;58.63;2.80;;;8.20;1.00;;;;;;5094227;28;20480;-71
2021/10/12 01:16:35;;;;;;;58.60;3.37;;;8.10;1.00;;;;;;5093662;28;20535;-71
2021/10/12 01:19:04;;;;;;;58.43;3.23;;;8.10;1.00;;;;;;5093920;28;20561;-70
2021/10/12 01:21:40;;;;;;;59.47;3.60;;;8.10;1.00;;;;;;5093455;28;20448;-71
2021/10/12 01:24:08;;;;;;;59.53;3.80;;;8.10;1.00;;;;;;5093541;28;20465;-71
2021/10/12 01:26:35;;;;;;;59.93;3.20;;;8.10;1.00;;;;;;5093425;28;20480;-71
2021/10/12 01:29:03;;;;;;;58.60;3.30;;;8.10;1.00;;;;;;5093463;28;20468;-71
2021/10/12 01:31:30;;;;;;;58.60;3.10;;;8.10;1.00;;;;;;5091145;28;20488;-71
2021/10/12 01:33:57;;;;;;;58.70;3.30;;;8.20;1.00;;;;;;5093617;28;20535;-71
2021/10/12 01:36:24;;;;;;;58.87;3.50;;;8.20;1.00;;;;;;5092949;28;20535;-71
2021/10/12 01:38:52;;;;;;;58.97;3.50;;;8.20;1.00;;;;;;5093359;28;20558;-71
2021/10/12 01:41:19;;;;;;;58.57;3.10;;;8.20;1.00;;;;;;5092981;28;20448;-71
2021/10/12 01:43:46;;;;;;;58.40;2.90;;;8.20;1.00;;;;;;5093125;28;20447;-71
2021/10/12 01:46:13;;;;;;;58.37;3.10;;;8.20;1.00;;;;;;5071474;28;20495;-71
2021/10/12 01:48:40;;;;;;;58.60;3.40;;;8.20;1.00;;;;;;5072026;28;20894;-71
2021/10/12 01:51:07;;;;;;;58.57;3.20;;;8.30;1.00;;;;;;5073023;28;20994;-71
2021/10/12 01:53:34;;;;;;;58.20;2.80;;;8.30;1.00;;;;;;5073055;28;20881;-71
2021/10/12 01:56:04;;;;;;;58.67;4.20;;;8.30;1.00;;;;;;5072673;28;20539;-71
2021/10/12 01:58:31;;;;;;;59.20;3.97;;;8.30;1.00;;;;;;5073091;28;20476;-71
2021/10/12 02:00:58;;;;;;;58.43;2.80;;;8.30;1.00;;;;;;5073101;28;20447;-71
2021/10/12 02:03:25;;;;;;;58.50;2.90;;;8.30;1.00;;;;;;5074869;28;20480;-71
2021/10/12 02:05:52;;;;;;;58.70;3.03;;;8.30;1.00;;;;;;5073944;28;20576;-71
2021/10/12 02:08:19;;;;;;;58.23;2.73;;;8.30;1.00;;;;;;5072483;28;20548;-71
2021/10/12 02:10:46;;;;;;;59.10;3.70;;;8.30;1.00;;;;;;5072516;28;20539;-71
2021/10/12 02:13:14;;;;;;;58.37;2.93;;;8.30;1.00;;;;;;5072495;28;20477;-71
2021/10/12 02:15:41;;;;;;;58.20;2.70;;;8.40;1.00;;;;;;5072367;28;20895;-71
2021/10/12 02:18:08;;;;;;;58.40;3.30;;;8.40;1.00;;;;;;5072234;28;20559;-71
2021/10/12 02:20:34;;;;;;;58.70;3.80;;;8.40;1.00;;;;;;5072582;28;20881;-71
2021/10/12 02:23:01;;;;;;;58.27;2.57;;;8.40;1.00;;;;;;5071954;28;20451;-71
2021/10/12 02:25:28;;;;;;;59.30;3.57;;;8.40;1.00;;;;;;5071335;28;20520;-71
2021/10/12 02:27:55;;;;;;;59.10;3.83;;;8.40;1.00;;;;;;5071945;28;20494;-71
2021/10/12 02:30:23;;;;;;;58.47;3.13;;;8.40;1.00;;;;;;5072331;28;20551;-71
2021/10/12 02:32:50;;;;;;;58.40;2.60;;;8.40;1.00;;;;;;5072265;28;20457;-71
2021/10/12 02:35:17;;;;;;;58.77;3.20;;;8.40;1.00;;;;;;5072051;28;20887;-71
2021/10/12 02:37:44;;;;;;;58.60;3.37;;;8.50;1.00;;;;;;5070550;28;20552;-71
2021/10/12 02:40:11;;;;;;;58.33;2.67;;;8.50;1.00;;;;;;5072347;28;20496;-71
2021/10/12 02:42:38;;;;;;;58.47;2.80;;;8.50;1.00;;;;;;5071345;28;20444;-71
2021/10/12 02:45:06;;;;;;;58.77;3.27;;;8.50;1.00;;;;;;5071544;28;20577;-71
2021/10/12 02:47:35;;;;;;;58.47;2.70;;;8.40;1.00;;;;;;5071510;28;20535;-71
2021/10/12 02:50:02;;;;;;;58.37;3.00;;;8.40;1.00;;;;;;5071810;28;20564;-71
2021/10/12 02:52:28;;;;;;;58.47;2.90;;;8.40;1.00;;;;;;5072009;28;20860;-71
2021/10/12 02:54:55;;;;;;;59.10;3.57;;;8.40;1.00;;;;;;5071685;28;20533;-71
2021/10/12 02:57:22;;;;;;;58.60;3.30;;;8.40;1.00;;;;;;5071838;28;20454;-71
2021/10/12 02:59:49;;;;;;;58.37;3.10;;;8.30;1.00;;;;;;5071665;28;20560;-71
2021/10/12 03:02:16;;;;;;;58.27;3.00;;;8.30;1.00;;;;;;5071876;28;20540;-71
2021/10/12 03:04:44;;;;;;;58.57;3.60;;;8.30;1.00;;;;;;5071434;28;20989;-71
2021/10/12 03:07:11;;;;;;;58.77;3.53;;;8.30;1.00;;;;;;5071338;28;20486;-71
2021/10/12 03:09:38;;;;;;;58.80;4.27;;;8.30;1.00;;;;;;5086709;28;20473;-70
2021/10/12 03:12:06;;;;;;;58.77;3.10;;;8.30;1.00;;;;;;5091883;28;20531;-71
2021/10/12 03:14:32;;;;;;;58.50;2.90;;;8.30;1.00;;;;;;5091751;28;20453;-71
2021/10/12 03:16:59;;;;;;;58.70;3.27;;;8.30;1.00;;;;;;5091499;28;20950;-71
2021/10/12 03:19:26;;;;;;;59.00;4.27;;;8.30;1.00;;;;;;5091609;28;21049;-70
2021/10/12 03:21:58;;;;;;;58.50;3.00;;;8.30;1.00;;;;;;5091536;28;20480;-71
2021/10/12 03:24:25;;;;;;;58.47;3.20;;;8.30;1.00;;;;;;5091643;28;20979;-71
2021/10/12 03:26:52;;;;;;;58.40;3.00;;;8.30;1.00;;;;;;5091042;28;21010;-71
2021/10/12 03:29:19;;;;;;;58.60;3.30;;;8.30;1.00;;;;;;5091517;28;20563;-71
2021/10/12 03:31:45;;;;;;;59.70;4.80;;;8.30;1.00;;;;;;5091459;28;20487;-70
2021/10/12 03:34:12;;;;;;;58.80;3.15;;;8.30;1.00;;;;;;5091652;28;20489;-71
2021/10/12 03:36:39;;;;;;;59.40;3.50;;;8.30;1.00;;;;;;5091289;28;20200;-71
2021/10/12 03:39:08;;;;;;;58.60;3.10;;;8.30;1.00;;;;;;5091553;28;20533;-71
2021/10/12 03:41:35;;;;;;;58.33;2.95;;;8.30;1.00;;;;;;5089831;28;20202;-71
2021/10/12 03:44:02;;;;;;;58.37;2.97;;;8.30;1.00;;;;;;5091474;28;20296;-71
2021/10/12 03:46:29;;;;;;;58.47;2.70;;;8.30;1.00;;;;;;5090851;28;20575;-71
2021/10/12 03:48:55;;;;;;;58.40;3.10;;;8.30;1.00;;;;;;5091307;28;21222;-70
2021/10/12 03:51:22;;;;;;;58.17;3.00;;;8.40;1.00;;;;;;5091094;28;20552;-71
2021/10/12 03:53:49;;;;;;;58.30;3.00;;;8.40;1.00;;;;;;5091634;28;20448;-71
2021/10/12 03:56:17;;;;;;;58.60;3.47;;;8.40;1.00;;;;;;5091243;28;20493;-71
2021/10/12 03:58:44;;;;;;;58.30;3.00;;;8.50;1.00;;;;;;5091359;28;20464;-71
2021/10/12 04:01:11;;;;;;;58.70;3.47;;;8.50;1.00;;;;;;5091572;28;20527;-71
2021/10/12 04:03:38;;;;;;;58.87;3.37;;;8.50;1.00;;;;;;5091094;28;20680;-71
2021/10/12 04:06:05;;;;;;;58.33;2.80;;;8.60;1.00;;;;;;5090829;28;20863;-71
2021/10/12 04:08:32;;;;;;;58.47;3.10;;;8.60;1.00;;;;;;5091209;28;20923;-71
2021/10/12 04:10:58;;;;;;;57.97;2.67;;;8.60;1.00;;;;;;5089857;28;20491;-71
2021/10/12 04:13:27;;;;;;;60.80;3.17;;;8.60;1.00;;;;;;5096077;28;20484;-71
2021/10/12 04:15:53;;;;;;;58.13;2.70;;;8.70;1.00;;;;;;5094899;28;20445;-71
2021/10/12 04:18:20;;;;;;;58.50;3.40;;;8.70;1.00;;;;;;5094761;28;20913;-71
2021/10/12 04:20:47;;;;;;;58.70;3.20;;;8.70;1.00;;;;;;5095346;28;20862;-71
2021/10/12 04:23:14;;;;;;;58.87;3.50;;;8.70;1.00;;;;;;5094978;28;20449;-71
2021/10/12 04:25:42;;;;;;;58.07;3.20;;;8.70;1.00;;;;;;5094150;28;20575;-71
2021/10/12 04:28:12;;;;;;;58.40;3.00;;;8.70;1.00;;;;;;5094504;28;20518;-71
2021/10/12 04:30:41;;;;;;;59.37;3.90;;;8.70;1.00;;;;;;5094659;28;20482;-71
2021/10/12 04:33:08;;;;;;;58.77;3.50;;;8.70;1.00;;;;;;5094544;28;20539;-71
2021/10/12 04:35:35;;;;;;;58.10;2.63;;;8.70;1.00;;;;;;5094479;28;20448;-71
2021/10/12 04:38:03;;;;;;;58.97;3.17;;;8.70;1.00;;;;;;5094876;28;20552;-71
2021/10/12 04:40:30;;;;;;;58.23;2.93;;;8.70;1.00;;;;;;5094754;28;20450;-71
2021/10/12 04:42:58;;;;;;;58.47;3.50;;;8.70;1.00;;;;;;5094662;28;20598;-72
2021/10/12 04:45:25;;;;;;;58.13;2.90;;;8.70;1.00;;;;;;5072054;28;20552;-72
2021/10/12 04:47:53;;;;;;;59.47;4.50;;;8.70;1.00;;;;;;5074055;28;20455;-72
2021/10/12 04:50:20;;;;;;;58.50;3.30;;;8.70;1.00;;;;;;5074027;28;20454;-71
2021/10/12 04:52:47;;;;;;;59.17;4.33;;;8.70;1.00;;;;;;5073974;28;20900;-70
2021/10/12 04:55:14;;;;;;;58.80;4.00;;;8.70;1.00;;;;;;5073895;28;20531;-71
2021/10/12 04:57:41;;;;;;;60.43;3.60;;;8.70;1.00;;;;;;5073917;28;20449;-70
2021/10/12 05:00:10;;;;;;;58.37;3.27;;;8.70;1.00;;;;;;5073607;28;20849;-71
2021/10/12 05:02:37;;;;;;;58.50;3.37;;;8.70;1.00;;;;;;5074259;28;20454;-70
2021/10/12 05:05:05;;;;;;;58.70;3.30;;;8.70;1.00;;;;;;5073654;28;20880;-71
2021/10/12 05:07:32;;;;;;;58.03;3.00;;;8.70;1.00;;;;;;5073453;28;20491;-71
2021/10/12 05:09:59;;;;;;;60.50;3.13;;;8.70;1.00;;;;;;5073685;28;20556;-71
2021/10/12 05:12:26;;;;;;;58.50;3.00;;;8.70;1.00;;;;;;5073361;28;20491;-73
2021/10/12 05:14:53;;;;;;;58.53;2.90;;;8.70;1.00;;;;;;5073732;28;20529;-70
2021/10/12 05:17:25;;;;;;;58.60;3.20;;;8.60;1.00;;;;;;5090043;28;20456;-70
2021/10/12 05:19:52;;;;;;;58.33;2.90;;;8.60;1.00;;;;;;5094270;28;20530;-71
2021/10/12 05:22:20;;;;;;;58.37;2.80;;;8.60;1.00;;;;;;5093597;28;20962;-70
2021/10/12 05:24:47;;;;;;;58.27;2.80;;;8.60;1.00;;;;;;5093179;28;20466;-71
2021/10/12 05:27:14;;;;;;;58.50;2.87;;;8.60;1.00;;;;;;5092901;28;20587;-70
2021/10/12 05:29:41;;;;;;;58.27;3.13;;;8.60;1.00;;;;;;5093597;28;20906;-70
2021/10/12 05:32:09;;;;;;;58.30;2.80;;;8.60;1.00;;;;;;5093202;28;20532;-70
2021/10/12 05:34:36;;;;;;;58.27;2.83;;;8.60;1.00;;;;;;5093641;28;20456;-70
2021/10/12 05:37:04;;;;;;;58.30;2.83;;;8.60;1.00;;;;;;5093381;28;20534;-70
2021/10/12 05:39:32;;;;;;;59.00;4.17;;;8.60;1.00;;;;;;5093228;28;20469;-71
2021/10/12 05:41:59;;;;;;;58.27;3.00;;;8.60;1.00;;;;;;5093695;28;20445;-71
2021/10/12 05:44:26;;;;;;;59.17;3.70;;;8.60;1.00;;;;;;5093253;28;20483;-72
2021/10/12 05:46:53;;;;;;;58.57;3.10;;;8.60;1.00;;;;;;5092333;28;20571;-72
2021/10/12 05:49:19;;;;;;;58.93;4.10;;;8.60;1.00;;;;;;5092743;28;20469;-72
2021/10/12 05:51:47;;;;;;;58.27;2.83;;;8.70;1.00;;;;;;5093303;28;20491;-72
2021/10/12 05:54:17;;;;;;;60.40;3.80;;;8.60;1.00;;;;;;5093283;28;20449;-71
2021/10/12 05:56:47;;;;;;;58.47;3.40;;;8.60;1.00;;;;;;5093121;28;20452;-72
2021/10/12 05:59:15;;;;;;;61.73;3.50;;;8.70;1.00;;;;;;5093120;28;20472;-72
2021/10/12 06:01:42;;;;;;;58.30;2.80;;;8.70;1.00;;;;;;5093263;28;20533;-72
2021/10/12 06:04:09;;;;;;;58.40;2.87;;;8.70;1.00;;;;;;5093244;28;20445;-72
2021/10/12 06:06:36;;;;;;;58.50;3.30;;;8.70;1.00;;;;;;5092561;28;20489;-71
2021/10/12 06:09:05;;;;;;;58.17;3.10;;;8.80;1.00;;;;;;5093199;28;20528;-72
2021/10/12 06:11:32;;;;;;;58.37;3.00;;;8.80;1.00;;;;;;5092953;28;20548;-72
2021/10/12 06:14:01;;;;;;;58.53;3.03;;;8.80;1.70;;;;;;5092960;28;20444;-72
2021/10/12 06:16:27;;;;;;;61.23;3.30;;;8.80;2.20;;;;;;5092647;28;20535;-71
2021/10/12 06:18:54;;;;;;;59.00;4.37;;;8.80;3.20;;;;;;5092809;28;20470;-72
2021/10/12 06:21:21;;;;;;;60.40;3.83;;;8.80;5.00;;;;;;5092741;28;20541;-71
2021/10/12 06:23:48;;;;;;;59.00;3.67;;;8.80;6.00;;;;;;5093377;28;20498;-72
2021/10/12 06:26:15;;;;;;;58.17;2.77;;;8.80;6.50;;;;;;5092755;28;20480;-72
2021/10/12 06:28:41;;;;;;;58.30;3.20;;;8.90;6.90;;;;;;5092608;28;20579;-70
2021/10/12 06:31:10;;;;;;;58.90;3.20;;;8.90;7.50;;;;;;5092757;28;20448;-71
2021/10/12 06:33:37;;;;;;;58.80;3.20;;;8.90;8.40;;;;;;5092054;28;20488;-71
2021/10/12 06:36:04;;;;;;;58.17;2.73;;;8.90;10.00;;;;;;5092226;28;20449;-71
2021/10/12 06:38:31;;;;;;;62.40;3.30;;;8.90;10.30;;;;;;5092573;28;20843;-71
2021/10/12 06:40:58;;;;;;;58.47;3.70;;;9.00;11.90;;;;;;5092721;28;20445;-71
2021/10/12 06:43:24;;;;;;;58.47;2.80;;;9.00;13.10;;;;;;5092433;28;20989;-71
2021/10/12 06:45:51;;;;;;;58.67;3.30;;;9.00;14.80;;;;;;5092278;28;20450;-72
2021/10/12 06:48:19;;;;;;;58.97;3.13;;;9.00;16.30;;;;;;5092373;28;20492;-71
2021/10/12 06:50:47;;;;;;;58.57;3.10;;;9.00;17.60;;;;;;5092631;28;20455;-71
2021/10/12 06:53:13;;;;;;;58.37;2.80;;;9.00;18.70;;;;;;5092592;28;20544;-71
2021/10/12 06:55:40;;;;;;;58.40;2.90;;;9.10;20.70;;;;;;5092161;28;20495;-71
2021/10/12 06:58:07;;;;;;;58.50;3.10;;;9.10;23.10;;;;;;5091757;28;20552;-71
2021/10/12 07:00:34;;;;;;;59.10;3.97;;;9.10;24.80;;;;;;5092310;28;20860;-71
2021/10/12 07:03:01;;;;;;;58.27;3.00;;;9.20;26.90;;;;;;5091996;28;20613;-71
2021/10/12 07:05:29;;;;;;;59.00;3.70;;;9.20;28.00;;;;;;5092193;28;20543;-71
2021/10/12 07:07:56;;;;;;;58.13;3.00;;;9.20;28.20;;;;;;5091975;28;20629;-71
2021/10/12 07:10:23;;;;;;;58.40;3.40;;;9.30;29.20;;;;;;5092097;28;20957;-71
2021/10/12 07:12:52;;;;;;;58.70;3.30;;;9.30;30.40;;;;;;5092125;28;20449;-71
2021/10/12 07:15:19;;;;;;;58.20;2.90;;;9.30;33.20;;;;;;5091761;28;20450;-74
2021/10/12 07:17:46;;;;;;;58.60;3.30;;;9.30;36.60;;;;;;5091713;28;20532;-72
2021/10/12 07:20:13;;;;;;;58.30;3.00;;;9.30;39.40;;;;;;5092175;28;20469;-71
2021/10/12 07:22:41;;;;;;;58.50;3.10;;;9.40;43.60;;;;;;5091994;28;20464;-72
2021/10/12 07:25:09;;;;;;;58.13;2.80;;;9.40;46.20;;;;;;5091917;28;20495;-72
2021/10/12 07:27:36;;;;;;;58.67;3.07;;;9.40;49.50;;;;;;5091781;28;20921;-71
2021/10/12 07:30:06;;;;;;;64.53;4.17;;;9.40;52.10;;;;;;5092007;28;20461;-70
2021/10/12 07:32:34;;;;;;;58.13;2.80;;;9.50;54.10;;;;;;5092380;28;20532;-71
2021/10/12 07:35:02;;;;;;;58.40;2.90;;;9.60;55.50;;;;;;5092426;28;20519;-72
2021/10/12 07:37:29;;;;;;;58.37;3.30;;;9.60;56.70;;;;;;5091787;28;20457;-72
2021/10/12 07:39:57;;;;;;;58.27;2.70;;;9.70;57.70;;;;;;5091998;28;21080;-71
2021/10/12 07:42:24;;;;;;;58.37;2.70;;;9.80;58.20;;;;;;5092036;28;20455;-71
2021/10/12 07:44:51;;;;;;;58.37;2.87;;;9.80;58.40;;;;;;5089500;28;20462;-71
2021/10/12 07:47:17;;;;;;;58.50;3.00;;;9.80;57.80;;;;;;5093591;28;21001;-71
2021/10/12 07:49:44;;;;;;;58.40;3.00;;;9.90;58.10;;;;;;5095503;28;20496;-70
2021/10/12 07:52:11;;;;;;;60.80;3.43;;;9.90;57.00;;;;;;5095154;28;20452;-70
2021/10/12 07:54:45;;;;;;;58.30;2.90;;;10.00;54.70;;;;;;5094361;28;20481;-74
2021/10/12 07:57:14;;;;;;;58.67;2.90;;;10.00;52.70;;;;;;5094813;28;20528;-71
2021/10/12 07:59:41;;;;;;;58.43;3.20;;;10.10;49.80;;;;;;5095258;28;20462;-72
2021/10/12 08:02:11;;;;;;;58.07;2.70;;;10.10;46.80;;;;;;5095217;28;20446;-70
2021/10/12 08:04:39;;;;;;;58.37;2.90;;;10.20;43.20;;;;;;5095339;28;20468;-73
2021/10/12 08:07:06;;;;;;;58.13;2.87;;;10.20;36.80;;;;;;5094845;28;20485;-70
2021/10/12 08:09:34;;;;;;;58.70;3.10;;;10.30;31.70;;;;;;5094945;28;20473;-71
2021/10/12 08:12:01;;;;;;;58.20;3.10;;;10.30;28.00;;;;;;5094895;28;20519;-72
2021/10/12 08:14:30;;;;;;;58.13;2.93;;;10.30;21.50;;;;;;5095117;28;20474;-71
2021/10/12 08:16:57;;;;;;;58.20;2.80;;;10.40;15.60;;;;;;5094861;28;20968;-73
2021/10/12 08:19:24;;;;;;;57.97;2.90;;;10.50;16.70;;;;;;5094835;28;20927;-71
2021/10/12 08:21:51;;;;;;;58.97;4.40;;;10.60;18.10;;;;;;5094744;28;20438;-71
2021/10/12 08:24:20;;;;;;;58.20;3.10;;;10.60;16.20;;;;;;5094457;28;20498;-71
2021/10/12 08:26:47;;;;;;;58.23;3.50;;;10.70;13.40;;;;;;5094406;28;20456;-70
2021/10/12 08:29:14;;;;;;;59.87;3.30;;;10.70;8.50;;;;;;5094514;28;20557;-70
2021/10/12 08:31:43;;;;;;;58.23;3.27;;;10.70;7.20;;;;;;5095082;28;20541;-71
2021/10/12 08:34:10;;;;;;;58.03;2.80;;;10.80;7.10;;;;;;5095043;28;20896;-73
2021/10/12 08:36:38;;;;;;;58.07;2.70;;;10.80;8.30;;;;;;5094448;28;21017;-71
2021/10/12 08:39:05;;;;;;;58.20;2.80;;;10.90;6.30;;;;;;5095013;28;20523;-70
2021/10/12 08:41:37;;;;;;;58.17;2.80;;;11.00;10.00;;;;;;5094872;28;20453;-71
2021/10/12 08:44:04;;;;;;;58.27;2.83;;;11.10;11.40;;;;;;5094530;28;20536;-70
2021/10/12 08:46:31;;;;;;;58.50;3.20;;;11.20;10.30;;;;;;5094273;28;20968;-71
2021/10/12 08:49:00;;;;;;;57.97;2.67;;;11.10;5.10;;;;;;5094062;28;21002;-70
2021/10/12 08:51:27;;;;;;;58.27;3.20;;;11.10;1.00;;;;;;5094541;28;20947;-70
2021/10/12 08:53:55;;;;;;;58.33;2.90;;;11.10;1.00;;;;;;5092362;28;20446;-72
2021/10/12 08:56:22;;;;;;;58.53;3.00;;;11.00;1.00;;;;;;5094373;28;20533;-70
2021/10/12 08:58:49;;;;;;;58.53;3.10;;;11.00;1.00;;;;;;5094436;28;20558;-71
2021/10/12 09:01:17;;;;;;;58.60;3.40;;;11.00;1.00;;;;;;5094931;28;20446;-71
2021/10/12 09:03:58;;;;;;;58.20;2.80;;;11.10;1.00;;;;;;5094121;28;21025;-72
2021/10/12 09:06:30;;;;;;;58.07;3.00;;;11.20;1.00;;;;;;5093981;28;20450;-69
2021/10/12 09:08:59;;;;;;;58.77;3.10;;;11.30;1.00;;;;;;5093708;28;20486;-73
2021/10/12 09:11:28;;;;;;;58.47;3.00;;;11.40;1.00;;;;;;5094314;28;20537;-72
2021/10/12 09:14:01;;;;;;;58.60;3.77;;;11.60;1.00;;;;;;5094290;28;20446;-72
2021/10/12 09:16:34;;;;;;;58.33;3.20;;;11.80;1.00;;;;;;5093943;28;20446;-70
2021/10/12 09:19:02;;;;;;;58.80;3.97;;;11.90;1.00;;;;;;5094068;28;20982;-72
2021/10/12 09:21:35;;;;;;;58.07;2.60;;;12.00;1.00;;;;;;5094196;28;20537;-74
2021/10/12 09:24:09;;;;;;;57.97;2.97;;;12.20;1.00;;;;;;5093582;28;20465;-72
2021/10/12 09:26:38;;;;;;;58.20;2.70;;;12.40;1.00;;;;;;5093209;28;20446;-72
2021/10/12 09:29:09;;;;;;;58.07;2.60;;;12.50;1.00;;;;;;5093567;28;20565;-73
2021/10/12 09:31:41;;;;;;;58.23;2.70;;;12.70;1.00;;;;;;5093722;28;20508;-72
2021/10/12 09:34:09;;;;;;;58.27;2.80;;;12.90;1.00;;;;;;5093851;28;20477;-73
2021/10/12 09:36:40;;;;;;;58.20;3.00;;;13.10;1.00;;;;;;5093439;28;20453;-73
2021/10/12 09:39:10;;;;;;;58.17;2.90;;;13.20;1.00;;;;;;5093648;28;20521;-73
2021/10/12 09:41:37;;;;;;;58.17;2.70;;;13.30;1.00;;;;;;5093686;28;20454;-72
2021/10/12 09:44:15;;;;;;;58.40;3.00;;;13.20;1.00;;;;;;5091728;28;20461;-71
2021/10/12 09:46:46;;;;;;;58.20;2.80;;;13.10;1.00;;;;;;5092918;28;20503;-73
2021/10/12 09:49:19;;;;;;;58.03;2.90;;;13.10;1.00;;;;;;5092873;28;20495;-71
2021/10/12 09:51:58;;;;;;;58.47;3.20;;;13.10;1.00;;;;;;5093221;28;20442;-72
2021/10/12 09:54:27;;;;;;;58.03;2.80;;;12.90;1.00;;;;;;5093366;28;20446;-69
2021/10/12 09:56:55;;;;;;;58.40;2.80;;;12.60;1.00;;;;;;5093166;28;20450;-70
2021/10/12 09:59:23;;;;;;;58.23;2.67;;;12.40;1.00;;;;;;5093503;28;20465;-71
2021/10/12 10:01:50;;;;;;;58.30;2.80;;;12.10;1.00;;;;;;5093182;28;20442;-72
2021/10/12 10:04:19;;;;;;;58.07;2.73;;;11.90;1.00;;;;;;5092905;28;20541;-72
2021/10/12 10:06:48;;;;;;;58.47;2.70;;;11.60;1.00;;;;;;5092728;28;20453;-72
2021/10/12 10:09:20;;;;;;;58.17;3.00;;;11.40;1.00;;;;;;5091876;28;20486;-72
2021/10/12 10:11:47;;;;;;;58.40;2.80;;;11.20;1.00;;;;;;5092987;28;21030;-73
2021/10/12 10:14:16;;;;;;;58.20;2.80;;;11.10;1.00;;;;;;5092966;28;20545;-72
2021/10/12 10:16:45;;;;;;;58.37;2.80;;;11.10;1.00;;;;;;5092469;28;20451;-71
2021/10/12 10:19:14;;;;;;;58.53;3.20;;;11.10;1.00;;;;;;5092999;28;20550;-70
2021/10/12 10:21:46;;;;;;;58.73;3.10;;;11.20;1.00;;;;;;5092910;28;20442;-71
2021/10/12 10:24:20;;;;;;;58.07;2.60;;;11.30;1.00;;;;;;5092619;28;20462;-73
2021/10/12 10:26:48;;;;;;;58.80;3.03;;;11.40;1.00;;;;;;5092222;28;20438;-71
2021/10/12 10:29:24;;;;;;;58.40;3.77;;;11.60;1.00;;;;;;5092181;28;20482;-70
2021/10/12 10:31:54;;;;;;;58.50;3.40;;;11.70;1.00;;;;;;5092898;28;20520;-71
2021/10/12 10:34:36;;;;;;;58.77;3.30;;;11.80;1.00;;;;;;5092939;28;20533;-71
2021/10/12 10:37:29;;;;;;;58.07;2.93;;;12.00;1.00;;;;;;5092563;28;20537;-71
2021/10/12 10:40:03;;;;;;;58.07;2.60;;;12.30;1.00;;;;;;5092758;28;20528;-73
2021/10/12 10:42:57;;;;;;;58.40;2.80;;;12.60;1.00;;;;;;5092698;28;20943;-72
2021/10/12 10:45:41;;;;;;;58.57;3.00;;;12.70;1.00;;;;;;5092172;28;20530;-72
2021/10/12 10:48:11;;;;;;;58.00;2.60;;;12.80;1.00;;;;;;5091943;28;21037;-71
2021/10/12 10:50:38;;;;;;;58.03;2.80;;;12.90;1.00;;;;;;5092068;28;20856;-72
2021/10/12 10:53:08;;;;;;;58.30;2.90;;;12.90;1.00;;;;;;5092542;28;20879;-72
2021/10/12 10:55:36;;;;;;;58.20;2.80;;;12.90;1.00;;;;;;5092053;28;20545;-72
2021/10/12 10:58:08;;;;;;;58.37;3.23;;;12.90;1.00;;;;;;5092200;28;20474;-72
2021/10/12 11:00:43;;;;;;;57.93;2.50;;;12.80;1.00;;;;;;5092178;28;20474;-71
2021/10/12 11:03:26;;;;;;;57.97;2.50;;;12.70;1.00;;;;;;5092129;28;20532;-72
2021/10/12 11:05:54;;;;;;;58.33;2.93;;;12.60;1.00;;;;;;5091765;28;20448;-72
2021/10/12 11:08:22;;;;;;;58.07;2.67;;;12.50;1.00;;;;;;5091384;28;20492;-72
2021/10/12 11:10:54;;;;;;;57.90;2.60;;;12.50;1.00;;;;;;5091389;28;20530;-72
2021/10/12 11:13:30;;;;;;;57.83;2.50;;;12.50;1.00;;;;;;5091889;28;20450;-72
2021/10/12 11:15:58;;;;;;;57.70;2.60;;;12.50;1.00;;;;;;5082693;28;20458;-72
2021/10/12 11:18:25;;;;;;;58.17;2.50;;;12.30;1.00;;;;;;5088563;28;20462;-72
2021/10/12 11:20:55;;;;;;;58.17;3.00;;;12.20;1.00;;;;;;5090769;28;20546;-72
2021/10/12 11:23:26;;;;;;;58.27;2.70;;;12.10;1.00;;;;;;5092475;28;20492;-71
2021/10/12 11:25:58;;;;;;;58.17;2.53;;;11.90;1.00;;;;;;5089013;28;20468;-71
2021/10/12 11:28:27;;;;;;;58.47;2.90;;;11.80;1.00;;;;;;5071402;28;20585;-70
2021/10/12 11:30:59;;;;;;;61.53;3.27;;;11.80;1.00;;;;;;5071579;28;20854;-71
2021/10/12 11:33:37;;;;;;;57.87;2.70;;;11.80;1.00;;;;;;5072367;28;20455;-72
2021/10/12 11:36:06;;;;;;;58.17;2.70;;;12.00;1.00;;;;;;5071873;28;20927;-71
2021/10/12 11:38:36;;;;;;;58.03;2.67;;;12.20;1.00;;;;;;5072109;28;20546;-71
2021/10/12 11:41:19;;;;;;;57.77;2.60;;;12.50;1.00;;;;;;5072646;28;20444;-72
2021/10/12 11:43:48;;;;;;;57.97;2.50;;;12.70;1.00;;;;;;5071560;28;20451;-72
2021/10/12 11:46:25;;;;;;;57.90;2.60;;;13.00;1.00;;;;;;5070928;28;20453;-72
2021/10/12 11:48:53;;;;;;;58.17;2.73;;;13.20;1.00;;;;;;5071192;28;20483;-71
2021/10/12 11:51:23;;;;;;;57.87;2.57;;;13.50;1.00;;;;;;5071289;28;20487;-69
2021/10/12 11:53:51;;;;;;;58.27;2.83;;;13.80;1.00;;;;;;5071866;28;20447;-70
2021/10/12 11:56:20;;;;;;;58.27;2.70;;;14.10;1.00;;;;;;5071461;28;20455;-70
2021/10/12 11:58:48;;;;;;;58.10;2.70;;;14.40;1.00;;;;;;5071340;28;20899;-70
2021/10/12 12:01:25;;;;;;;57.77;2.60;;;14.70;1.00;;;;;;5071738;28;20448;-70
2021/10/12 12:03:54;;;;;;;58.77;3.13;;;14.80;1.00;;;;;;5071941;28;20535;-71
2021/10/12 12:06:23;;;;;;;58.20;2.97;;;14.60;1.00;;;;;;5071862;28;20435;-71
2021/10/12 12:08:52;;;;;;;57.97;2.43;;;14.40;1.00;;;;;;5070886;28;20519;-72
2021/10/12 12:11:22;;;;;;;57.87;2.50;;;14.20;1.00;;;;;;5070994;28;20560;-72
2021/10/12 12:13:50;;;;;;;58.10;2.70;;;14.00;1.00;;;;;;5071441;28;20516;-72
2021/10/12 12:16:18;;;;;;;57.97;2.50;;;13.80;1.00;;;;;;5071153;28;20509;-72
2021/10/12 12:18:45;;;;;;;58.27;2.80;;;13.90;1.00;;;;;;5071071;28;20460;-72
2021/10/12 12:21:14;;;;;;;57.77;2.60;;;14.00;1.00;;;;;;5071178;28;20541;-72
2021/10/12 12:23:43;;;;;;;58.50;2.67;;;14.20;1.00;;;;;;5070826;28;20450;-72
2021/10/12 12:26:11;;;;;;;58.07;2.53;;;14.60;1.00;;;;;;5070664;28;20894;-70
2021/10/12 12:28:39;;;;;;;58.03;2.63;;;15.80;1.00;;;;;;5070756;28;20926;-70
2021/10/12 12:31:23;;;;;;;57.67;2.40;;;16.90;1.00;;;;;;5070719;28;20866;-70
2021/10/12 12:33:51;;;;;;;57.67;2.40;;;16.90;1.00;;;;;;5074367;28;20533;-70
2021/10/12 12:36:22;;;;;;;57.87;2.50;;;16.50;1.00;;;;;;5074135;28;20541;-70
2021/10/12 12:38:49;;;;;;;57.63;2.33;;;16.00;1.00;;;;;;5074517;28;20664;-70
2021/10/12 12:41:23;;;;;;;57.83;2.47;;;15.60;1.00;;;;;;5074812;28;20473;-70
2021/10/12 12:43:57;;;;;;;58.07;2.77;;;15.50;1.00;;;;;;5074430;28;20452;-71
2021/10/12 12:46:26;;;;;;;58.10;2.50;;;15.50;1.00;;;;;;5074108;28;20535;-70
2021/10/12 12:49:08;;;;;;;57.83;2.60;;;15.20;1.00;;;;;;5073791;28;20576;-70
2021/10/12 12:51:45;;;;;;;58.20;2.50;;;14.80;1.00;;;;;;5074171;28;20481;-71
2021/10/12 12:54:41;;;;;;;57.97;2.70;;;14.40;1.00;;;;;;5074382;28;20452;-71
2021/10/12 12:57:09;;;;;;;57.83;2.60;;;13.90;1.00;;;;;;5074013;28;20483;-71